This is the latest recevied weather packets stored in our database for station/object OE3FJB-25. If no packets are shown the sender has not sent any weather packets the latest 10 day(s).
| Time | Temp. | Humidity | Pressure | Rain* | Wind** | Luminosity | Snow |
|---|---|---|---|---|---|---|---|
| 1777481296 | 7.78° C | 45% | 1025.5 hPa | - | - | - | - |
| 1777480698 | 8.33° C | 44% | 1025.3 hPa | - | - | - | - |
| 1777480099 | 8.89° C | 44% | 1025.2 hPa | - | - | - | - |
| 1777479500 | 8.89° C | 42% | 1025.1 hPa | - | - | - | - |
| 1777478902 | 9.44° C | 40% | 1025.1 hPa | - | - | - | - |
| 1777478303 | 10° C | 39% | 1025 hPa | - | - | - | - |
| 1777477704 | 10° C | 38% | 1025 hPa | - | - | - | - |
| 1777477106 | 10.56° C | 38% | 1024.9 hPa | - | - | - | - |
| 1777476507 | 10.56° C | 37% | 1024.9 hPa | - | - | - | - |
| 1777475908 | 10.56° C | 37% | 1024.8 hPa | - | - | - | - |
| 1777475310 | 11.11° C | 36% | 1024.8 hPa | - | - | - | - |
| 1777474711 | 11.11° C | 36% | 1024.8 hPa | - | - | - | - |
| 1777474112 | 11.67° C | 35% | 1024.8 hPa | - | - | - | - |
| 1777473514 | 11.67° C | 35% | 1024.9 hPa | - | - | - | - |
| 1777472915 | 11.67° C | 35% | 1024.7 hPa | - | - | - | - |
| 1777472316 | 11.67° C | 35% | 1024.9 hPa | - | - | - | - |
| 1777471718 | 11.67° C | 35% | 1024.9 hPa | - | - | - | - |
| 1777471119 | 11.67° C | 35% | 1024.8 hPa | - | - | - | - |
| 1777470520 | 12.22° C | 35% | 1024.7 hPa | - | - | - | - |
| 1777469922 | 12.22° C | 35% | 1024.8 hPa | - | - | - | - |
| 1777469323 | 12.22° C | 34% | 1024.8 hPa | - | - | - | - |
| 1777468724 | 11.67° C | 34% | 1024.9 hPa | - | - | - | - |
| 1777468125 | 12.22° C | 34% | 1024.8 hPa | - | - | - | - |
| 1777467527 | 11.67° C | 34% | 1024.9 hPa | - | - | - | - |
| 1777466928 | 11.67° C | 34% | 1024.9 hPa | - | - | - | - |
* Rain since midnight (hover to see other rain measurements)
** Current wind speed in m/s (hover to see current wind gust speed)